Uni-arise — 3FSV7 — position and weather

sailwx.info

Track history (hours):
 
Tides and Currents Weather Stations Pressure Air Temp Water Temp Dewpoint Dewpoint Depression Visibility Wind Speed Wind Dir Waves Ship Positions

Uni-arise

Last reported at 2018-Feb-20 02:54 UTC. Time now 2018-Feb-21 13:18 UTC.
Position N 21°52' E 120°26'.

Length 165 m; draft 8.5 m.

Type: Ship (hazmat cat D). MMSI: 351608000.

Date/timePositionNaut miles runAvg speedWind from/ knotsBaromVisibWave heightAir tempDewpointWater temp
2018-Feb-20 02:54N 21°52' E 120°26'917.1
2018-Feb-20 02:23N 22°01' E 120°23'717.2
2018-Feb-20 02:00N 22°07' E 120°20'816.3
2018-Feb-20 01:30N 22°14' E 120°16'714.6
2018-Feb-20 01:00N 22°21' E 120°13'714.0
2018-Feb-20 00:30N 22°28' E 120°13'510.6
2018-Feb-20 00:00N 22°33' E 120°16'4 7.0
2018-Feb-19 23:30N 22°33' E 120°20'0 0.3
2018-Feb-19 23:00N 22°33' E 120°20'0 0.0
2018-Feb-19 22:30N 22°33' E 120°20'0 0.0
2018-Feb-19 22:00N 22°33' E 120°20'0 0.0
2018-Feb-19 21:24N 22°33' E 120°20'0 0.0
2018-Feb-19 21:00N 22°33' E 120°20'0 0.0
2018-Feb-19 20:30N 22°33' E 120°20'0 0.0
2018-Feb-19 19:57N 22°33' E 120°20'0 0.0
2018-Feb-19 19:30N 22°33' E 120°20'0 0.0
2018-Feb-19 19:00N 22°33' E 120°20'0 0.0
2018-Feb-19 18:27N 22°33' E 120°20'0 0.0
2018-Feb-19 18:00N 22°33' E 120°20'0 0.0
2018-Feb-19 17:30N 22°33' E 120°20'0 0.0
2018-Feb-19 17:00N 22°33' E 120°20'0 0.0
2018-Feb-19 16:30N 22°33' E 120°20'0 0.0
2018-Feb-19 16:00N 22°33' E 120°20'0 0.0
2018-Feb-19 15:30N 22°33' E 120°20'0 0.0
2018-Feb-19 15:00N 22°33' E 120°20'0 0.0
2018-Feb-19 14:30N 22°33' E 120°20'0 0.0
2018-Feb-19 14:00N 22°33' E 120°20'0 0.0
2018-Feb-19 13:30N 22°33' E 120°20'0 0.0
2018-Feb-19 13:00N 22°33' E 120°20'0 0.0
2018-Feb-19 12:30N 22°33' E 120°20'0 0.0
2018-Feb-19 11:57N 22°33' E 120°20'0 0.0
2018-Feb-19 11:30N 22°33' E 120°20'0 0.0
2018-Feb-19 11:00N 22°33' E 120°20'0 0.0
2018-Feb-19 10:30N 22°33' E 120°20'0 0.0
2018-Feb-19 10:00N 22°33' E 120°20'0 0.0
2018-Feb-19 09:30N 22°33' E 120°20'0 0.0
2018-Feb-19 09:00N 22°33' E 120°20'0 0.0
2018-Feb-19 08:24N 22°33' E 120°20'0 0.0
2018-Feb-19 08:00N 22°33' E 120°20'0 0.0
2018-Feb-19 07:30N 22°33' E 120°20'0 0.0
2018-Feb-19 07:00N 22°33' E 120°20'0 0.0
2018-Feb-19 06:30N 22°33' E 120°20'0 0.0
2018-Feb-19 06:00N 22°33' E 120°20'0 0.1
2018-Feb-19 05:30N 22°33' E 120°20'3 6.6
2018-Feb-19 05:01N 22°33' E 120°16'4 8.4
2018-Feb-19 04:30N 22°29' E 120°14'612.0
2018-Feb-19 04:00N 22°23' E 120°15'713.1
2018-Feb-19 03:31N 22°17' E 120°18'712.1
2018-Feb-19 02:54N 22°11' E 120°21'2 5.3
2018-Feb-19 02:29N 22°09' E 120°21'1 1.9
2018-Feb-19 01:59N 22°09' E 120°21'0 0.6
2018-Feb-19 01:30N 22°09' E 120°21'712.3
2018-Feb-19 00:55N 22°02' E 120°22'614.2
2018-Feb-19 00:30N 21°57' E 120°24'  
2018-Feb-13 02:29N 22°12' E 120°18'713.8
2018-Feb-13 02:00N 22°19' E 120°16'713.1
2018-Feb-13 01:30N 22°25' E 120°14'612.2
2018-Feb-13 01:00N 22°31' E 120°13'511.0
2018-Feb-13 00:30N 22°33' E 120°18'2 3.3
2018-Feb-12 23:59N 22°33' E 120°20'0 0.0
2018-Feb-12 23:26N 22°33' E 120°20'0 0.0
2018-Feb-12 22:59N 22°33' E 120°20'0 0.0
2018-Feb-12 22:26N 22°33' E 120°20'0 0.0
2018-Feb-12 21:59N 22°33' E 120°20'0 0.0
2018-Feb-12 21:29N 22°33' E 120°20'0 0.0
2018-Feb-12 20:59N 22°33' E 120°20'0 0.0
2018-Feb-12 20:29N 22°33' E 120°20'0 0.0
2018-Feb-12 19:59N 22°33' E 120°20'0 0.0
2018-Feb-12 19:29N 22°33' E 120°20'0 0.0
2018-Feb-12 18:59N 22°33' E 120°20'0 0.0
2018-Feb-12 18:26N 22°33' E 120°20'0 0.0
2018-Feb-12 17:59N 22°33' E 120°20'0 0.0
2018-Feb-12 17:29N 22°33' E 120°20'0 0.0
2018-Feb-12 16:59N 22°33' E 120°20'0 0.0
2018-Feb-12 16:29N 22°33' E 120°20'0 0.0
2018-Feb-12 15:59N 22°33' E 120°20'0 0.0
2018-Feb-12 15:17N 22°33' E 120°20'0 0.0
2018-Feb-12 14:59N 22°33' E 120°20'0 0.0
2018-Feb-12 14:29N 22°33' E 120°20'0 0.0
2018-Feb-12 13:59N 22°33' E 120°20'0 0.0
2018-Feb-12 13:29N 22°33' E 120°20'0 0.0
2018-Feb-12 12:59N 22°33' E 120°20'0 0.0
2018-Feb-12 12:29N 22°33' E 120°20'0 0.0
2018-Feb-12 11:59N 22°33' E 120°20'0 0.0
2018-Feb-12 11:26N 22°33' E 120°20'0 0.0
2018-Feb-12 10:59N 22°33' E 120°20'0 0.0
2018-Feb-12 10:29N 22°33' E 120°20'0 0.0
2018-Feb-12 09:59N 22°33' E 120°20'0 0.0
2018-Feb-12 09:26N 22°33' E 120°20'0 0.0
2018-Feb-12 08:56N 22°33' E 120°20'0 0.0
2018-Feb-12 08:26N 22°33' E 120°20'0 0.0
2018-Feb-12 07:59N 22°33' E 120°20'0 0.0
2018-Feb-12 07:29N 22°33' E 120°20'0 0.0
2018-Feb-12 06:59N 22°33' E 120°20'0 0.0
2018-Feb-12 06:29N 22°33' E 120°20'0 0.0
2018-Feb-12 05:59N 22°33' E 120°20'0 0.0
2018-Feb-12 05:29N 22°33' E 120°20'0 0.0
2018-Feb-12 04:56N 22°33' E 120°20'0 0.0
2018-Feb-12 04:29N 22°33' E 120°20'0 0.0
2018-Feb-12 03:56N 22°33' E 120°20'2 4.6
2018-Feb-12 03:31N 22°33' E 120°18'4 7.1
2018-Feb-12 03:00N 22°32' E 120°14'611.2
2018-Feb-12 02:30N 22°26' E 120°13'612.3
2018-Feb-12 02:01N 22°20' E 120°12'711.8
2018-Feb-12 01:25N 22°13' E 120°12'  
Track history (hours):
 
Tides and Currents Weather Stations Pressure Air Temp Water Temp Dewpoint Dewpoint Depression Visibility Wind Speed Wind Dir Waves Ship Positions

Uni-arise

Last reported at 2018-Feb-20 02:54 UTC. Time now 2018-Feb-21 13:18 UTC.
Position N 21°52' E 120°26'.

Length 165 m; draft 8.5 m.

Type: Ship (hazmat cat D). MMSI: 351608000.

Date/timePositionNaut miles runAvg speedWind from/ knotsBaromVisibWave heightAir tempDewpointWater temp
2018-Feb-20 02:54N 21°52' E 120°26'917.1
2018-Feb-20 02:23N 22°01' E 120°23'717.2
2018-Feb-20 02:00N 22°07' E 120°20'816.3
2018-Feb-20 01:30N 22°14' E 120°16'714.6
2018-Feb-20 01:00N 22°21' E 120°13'714.0
2018-Feb-20 00:30N 22°28' E 120°13'510.6
2018-Feb-20 00:00N 22°33' E 120°16'4 7.0
2018-Feb-19 23:30N 22°33' E 120°20'0 0.3
2018-Feb-19 23:00N 22°33' E 120°20'0 0.0
2018-Feb-19 22:30N 22°33' E 120°20'0 0.0
2018-Feb-19 22:00N 22°33' E 120°20'0 0.0
2018-Feb-19 21:24N 22°33' E 120°20'0 0.0
2018-Feb-19 21:00N 22°33' E 120°20'0 0.0
2018-Feb-19 20:30N 22°33' E 120°20'0 0.0
2018-Feb-19 19:57N 22°33' E 120°20'0 0.0
2018-Feb-19 19:30N 22°33' E 120°20'0 0.0
2018-Feb-19 19:00N 22°33' E 120°20'0 0.0
2018-Feb-19 18:27N 22°33' E 120°20'0 0.0
2018-Feb-19 18:00N 22°33' E 120°20'0 0.0
2018-Feb-19 17:30N 22°33' E 120°20'0 0.0
2018-Feb-19 17:00N 22°33' E 120°20'0 0.0
2018-Feb-19 16:30N 22°33' E 120°20'0 0.0
2018-Feb-19 16:00N 22°33' E 120°20'0 0.0
2018-Feb-19 15:30N 22°33' E 120°20'0 0.0
2018-Feb-19 15:00N 22°33' E 120°20'0 0.0
2018-Feb-19 14:30N 22°33' E 120°20'0 0.0
2018-Feb-19 14:00N 22°33' E 120°20'0 0.0
2018-Feb-19 13:30N 22°33' E 120°20'0 0.0
2018-Feb-19 13:00N 22°33' E 120°20'0 0.0
2018-Feb-19 12:30N 22°33' E 120°20'0 0.0
2018-Feb-19 11:57N 22°33' E 120°20'0 0.0
2018-Feb-19 11:30N 22°33' E 120°20'0 0.0
2018-Feb-19 11:00N 22°33' E 120°20'0 0.0
2018-Feb-19 10:30N 22°33' E 120°20'0 0.0
2018-Feb-19 10:00N 22°33' E 120°20'0 0.0
2018-Feb-19 09:30N 22°33' E 120°20'0 0.0
2018-Feb-19 09:00N 22°33' E 120°20'0 0.0
2018-Feb-19 08:24N 22°33' E 120°20'0 0.0
2018-Feb-19 08:00N 22°33' E 120°20'0 0.0
2018-Feb-19 07:30N 22°33' E 120°20'0 0.0
2018-Feb-19 07:00N 22°33' E 120°20'0 0.0
2018-Feb-19 06:30N 22°33' E 120°20'0 0.0
2018-Feb-19 06:00N 22°33' E 120°20'0 0.1
2018-Feb-19 05:30N 22°33' E 120°20'3 6.6
2018-Feb-19 05:01N 22°33' E 120°16'4 8.4
2018-Feb-19 04:30N 22°29' E 120°14'612.0
2018-Feb-19 04:00N 22°23' E 120°15'713.1
2018-Feb-19 03:31N 22°17' E 120°18'712.1
2018-Feb-19 02:54N 22°11' E 120°21'2 5.3
2018-Feb-19 02:29N 22°09' E 120°21'1 1.9
2018-Feb-19 01:59N 22°09' E 120°21'0 0.6
2018-Feb-19 01:30N 22°09' E 120°21'712.3
2018-Feb-19 00:55N 22°02' E 120°22'614.2
2018-Feb-19 00:30N 21°57' E 120°24'  
2018-Feb-13 02:29N 22°12' E 120°18'713.8
2018-Feb-13 02:00N 22°19' E 120°16'713.1
2018-Feb-13 01:30N 22°25' E 120°14'612.2
2018-Feb-13 01:00N 22°31' E 120°13'511.0
2018-Feb-13 00:30N 22°33' E 120°18'2 3.3
2018-Feb-12 23:59N 22°33' E 120°20'0 0.0
2018-Feb-12 23:26N 22°33' E 120°20'0 0.0
2018-Feb-12 22:59N 22°33' E 120°20'0 0.0
2018-Feb-12 22:26N 22°33' E 120°20'0 0.0
2018-Feb-12 21:59N 22°33' E 120°20'0 0.0
2018-Feb-12 21:29N 22°33' E 120°20'0 0.0
2018-Feb-12 20:59N 22°33' E 120°20'0 0.0
2018-Feb-12 20:29N 22°33' E 120°20'0 0.0
2018-Feb-12 19:59N 22°33' E 120°20'0 0.0
2018-Feb-12 19:29N 22°33' E 120°20'0 0.0
2018-Feb-12 18:59N 22°33' E 120°20'0 0.0
2018-Feb-12 18:26N 22°33' E 120°20'0 0.0
2018-Feb-12 17:59N 22°33' E 120°20'0 0.0
2018-Feb-12 17:29N 22°33' E 120°20'0 0.0
2018-Feb-12 16:59N 22°33' E 120°20'0 0.0
2018-Feb-12 16:29N 22°33' E 120°20'0 0.0
2018-Feb-12 15:59N 22°33' E 120°20'0 0.0
2018-Feb-12 15:17N 22°33' E 120°20'0 0.0
2018-Feb-12 14:59N 22°33' E 120°20'0 0.0
2018-Feb-12 14:29N 22°33' E 120°20'0 0.0
2018-Feb-12 13:59N 22°33' E 120°20'0 0.0
2018-Feb-12 13:29N 22°33' E 120°20'0 0.0
2018-Feb-12 12:59N 22°33' E 120°20'0 0.0
2018-Feb-12 12:29N 22°33' E 120°20'0 0.0
2018-Feb-12 11:59N 22°33' E 120°20'0 0.0
2018-Feb-12 11:26N 22°33' E 120°20'0 0.0
2018-Feb-12 10:59N 22°33' E 120°20'0 0.0
2018-Feb-12 10:29N 22°33' E 120°20'0 0.0
2018-Feb-12 09:59N 22°33' E 120°20'0 0.0
2018-Feb-12 09:26N 22°33' E 120°20'0 0.0
2018-Feb-12 08:56N 22°33' E 120°20'0 0.0
2018-Feb-12 08:26N 22°33' E 120°20'0 0.0
2018-Feb-12 07:59N 22°33' E 120°20'0 0.0
2018-Feb-12 07:29N 22°33' E 120°20'0 0.0
2018-Feb-12 06:59N 22°33' E 120°20'0 0.0
2018-Feb-12 06:29N 22°33' E 120°20'0 0.0
2018-Feb-12 05:59N 22°33' E 120°20'0 0.0
2018-Feb-12 05:29N 22°33' E 120°20'0 0.0
2018-Feb-12 04:56N 22°33' E 120°20'0 0.0
2018-Feb-12 04:29N 22°33' E 120°20'0 0.0
2018-Feb-12 03:56N 22°33' E 120°20'2 4.6
2018-Feb-12 03:31N 22°33' E 120°18'4 7.1
2018-Feb-12 03:00N 22°32' E 120°14'611.2
2018-Feb-12 02:30N 22°26' E 120°13'612.3
2018-Feb-12 02:01N 22°20' E 120°12'711.8
2018-Feb-12 01:25N 22°13' E 120°12'  

Dump ship's entire track history